createdAt,value
2023-05-24T00:05:00.909Z,92.17
2023-05-24T00:10:04.791Z,92.33
2023-05-24T00:15:07.276Z,94.71
2023-05-24T00:20:14.293Z,93.99
2023-05-24T00:25:16.230Z,93.93
2023-05-24T00:30:18.060Z,90.19
2023-05-24T00:35:19.876Z,88.31
2023-05-24T00:40:21.639Z,86.88
2023-05-24T00:45:25.506Z,88.21
2023-05-24T00:50:27.214Z,87.14
2023-05-24T00:55:30.365Z,88.84
2023-05-24T01:00:32.553Z,86.60
2023-05-24T01:05:34.279Z,85.06
2023-05-24T01:11:06.550Z,89.74
2023-05-24T01:16:15.517Z,84.62
2023-05-24T01:21:38.671Z,85.69
2023-05-24T01:27:12.307Z,88.01
2023-05-24T01:32:14.063Z,83.85
2023-05-24T01:37:15.766Z,83.99
2023-05-24T01:42:26.471Z,86.51
2023-05-24T01:47:28.176Z,83.12
2023-05-24T01:52:34.697Z,84.92
2023-05-24T01:57:41.394Z,85.26
2023-05-24T02:02:43.491Z,84.82
2023-05-24T02:07:46.170Z,85.20
2023-05-24T02:12:47.833Z,84.63
2023-05-24T02:17:49.545Z,83.77
2023-05-24T02:22:51.376Z,83.77
2023-05-24T02:27:53.243Z,85.11
2023-05-24T02:32:55.039Z,84.46
2023-05-24T02:37:58.647Z,82.95
2023-05-24T02:43:00.485Z,84.13
2023-05-24T02:48:02.448Z,84.24
2023-05-24T02:53:04.485Z,86.17
2023-05-24T02:58:06.332Z,84.31
2023-05-24T03:03:09.978Z,84.10
2023-05-24T03:08:11.834Z,84.70
2023-05-24T03:13:13.600Z,84.36
2023-05-24T03:18:15.470Z,84.61
2023-05-24T03:23:18.859Z,85.19
2023-05-24T03:28:22.340Z,88.00
2023-05-24T03:33:24.353Z,87.24
2023-05-24T03:38:26.284Z,85.29
2023-05-24T03:43:28.447Z,85.50
2023-05-24T03:48:32.531Z,87.03
2023-05-24T03:53:34.217Z,87.54
2023-05-24T03:58:36.028Z,87.19
2023-05-24T04:03:37.769Z,85.77
2023-05-24T04:08:39.702Z,85.56
2023-05-24T04:13:41.790Z,82.92
2023-05-24T04:18:45.347Z,87.05
2023-05-24T04:23:47.227Z,84.29
2023-05-24T04:28:50.151Z,82.80
2023-05-24T04:33:52.748Z,85.22
2023-05-24T04:38:56.138Z,83.25
2023-05-24T04:43:59.932Z,81.38
2023-05-24T04:49:02.312Z,79.43
2023-05-24T04:54:09.241Z,83.31
2023-05-24T04:59:11.143Z,83.88
2023-05-24T05:04:13.016Z,80.41
2023-05-24T05:09:15.844Z,80.54
2023-05-24T05:14:17.662Z,81.17
2023-05-24T05:19:19.572Z,80.38
2023-05-24T05:24:21.908Z,80.77
2023-05-24T05:29:24.520Z,77.40
2023-05-24T05:34:26.424Z,76.83
2023-05-24T05:39:28.400Z,81.15
2023-05-24T05:44:30.307Z,80.80
2023-05-24T05:49:32.802Z,79.34
2023-05-24T05:54:35.002Z,78.00
2023-05-24T05:59:38.240Z,75.60
2023-05-24T06:04:40.123Z,75.52
2023-05-24T06:09:41.936Z,76.17
2023-05-24T06:14:44.260Z,76.55
2023-05-24T06:19:45.942Z,76.30
2023-05-24T06:24:47.915Z,77.19
2023-05-24T06:29:50.002Z,73.45
2023-05-24T06:34:51.877Z,73.82
2023-05-24T06:39:53.711Z,73.79
2023-05-24T06:44:55.445Z,73.27
2023-05-24T06:49:57.637Z,70.29
2023-05-24T06:54:59.569Z,72.11
2023-05-24T07:00:01.658Z,72.75
2023-05-24T07:05:03.844Z,67.66
2023-05-24T07:10:08.487Z,68.87
2023-05-24T07:15:10.419Z,67.28
2023-05-24T07:20:13.826Z,68.24
2023-05-24T07:25:15.597Z,69.11
2023-05-24T07:30:30.977Z,67.70
2023-05-24T07:35:33.892Z,70.09
2023-05-24T07:40:35.643Z,69.26
2023-05-24T07:45:37.461Z,67.19
2023-05-24T07:50:39.196Z,68.02
2023-05-24T07:55:41.140Z,67.05
2023-05-24T08:00:43.096Z,65.88
2023-05-24T08:05:45.132Z,65.25
2023-05-24T08:10:47.179Z,65.34
2023-05-24T08:15:48.901Z,64.92
2023-05-24T08:20:50.686Z,60.85
2023-05-24T08:25:53.414Z,63.25
2023-05-24T08:30:55.693Z,62.85
2023-05-24T08:35:57.430Z,61.13
2023-05-24T08:40:59.306Z,63.46
2023-05-24T08:46:02.612Z,62.36
2023-05-24T08:51:05.016Z,60.37
2023-05-24T08:56:10.391Z,63.20
2023-05-24T09:01:17.058Z,61.13
2023-05-24T09:06:19.536Z,59.92
2023-05-24T09:11:23.021Z,57.58
2023-05-24T09:16:25.067Z,55.54
2023-05-24T09:21:27.300Z,58.01
2023-05-24T09:26:30.535Z,58.50
2023-05-24T09:31:37.380Z,57.87
2023-05-24T09:36:43.160Z,56.24
2023-05-24T09:41:55.701Z,53.72
2023-05-24T09:47:06.756Z,53.99
2023-05-24T09:52:08.644Z,54.46
2023-05-24T09:57:11.206Z,53.16
2023-05-24T10:02:13.184Z,52.90
2023-05-24T10:07:19.988Z,52.96
2023-05-24T10:12:23.348Z,53.92
2023-05-24T10:17:28.097Z,52.32
2023-05-24T10:22:31.091Z,50.41
2023-05-24T10:27:33.447Z,49.86
2023-05-24T10:32:39.142Z,47.59
2023-05-24T10:37:42.792Z,47.72
2023-05-24T10:42:45.248Z,47.39
2023-05-24T10:47:47.054Z,50.48
2023-05-24T10:52:49.630Z,50.15
2023-05-24T10:57:51.371Z,53.72
2023-05-24T11:03:04.169Z,50.32
2023-05-24T11:08:07.441Z,50.53
2023-05-24T11:13:09.373Z,49.51
2023-05-24T11:18:14.049Z,47.74
2023-05-24T11:23:16.717Z,50.87
2023-05-24T11:28:18.892Z,48.05
2023-05-24T11:33:24.945Z,52.69
2023-05-24T11:38:27.519Z,51.35
2023-05-24T11:43:31.377Z,51.33
2023-05-24T11:48:33.371Z,51.68
2023-05-24T11:53:35.058Z,51.01
2023-05-24T11:58:49.679Z,48.04
2023-05-24T12:03:53.410Z,48.14
2023-05-24T12:08:55.416Z,48.96
2023-05-24T12:13:58.432Z,50.34
2023-05-24T12:19:07.146Z,48.55
2023-05-24T12:24:22.160Z,48.86
2023-05-24T12:29:23.857Z,50.17
2023-05-24T12:34:25.547Z,49.81
2023-05-24T12:39:31.674Z,47.46
2023-05-24T12:44:37.957Z,46.25
2023-05-24T12:49:39.709Z,47.88
2023-05-24T12:54:41.379Z,46.72
2023-05-24T12:59:43.400Z,48.03
2023-05-24T13:04:45.148Z,45.92
2023-05-24T13:09:46.795Z,46.05
2023-05-24T13:14:50.706Z,44.20
2023-05-24T13:19:54.256Z,44.89
2023-05-24T13:24:56.029Z,45.78
2023-05-24T13:30:01.246Z,47.06
2023-05-24T13:35:05.290Z,46.89
2023-05-24T13:40:09.658Z,47.38
2023-05-24T13:45:12.561Z,47.64
2023-05-24T13:50:14.518Z,45.93
2023-05-24T13:55:16.706Z,44.25
2023-05-24T14:00:19.194Z,44.03
2023-05-24T14:05:27.431Z,42.82
2023-05-24T14:10:29.796Z,45.87
2023-05-24T14:15:32.097Z,47.17
2023-05-24T14:20:38.201Z,47.22
2023-05-24T14:25:42.332Z,44.62
2023-05-24T14:30:44.387Z,46.48
2023-05-24T14:35:46.401Z,46.40
2023-05-24T14:40:48.527Z,45.47
2023-05-24T14:45:50.298Z,45.19
2023-05-24T14:50:52.572Z,42.65
2023-05-24T14:55:54.485Z,42.08
2023-05-24T15:00:56.322Z,42.75
2023-05-24T15:05:58.311Z,43.29
2023-05-24T15:11:00.042Z,43.04
2023-05-24T15:16:01.788Z,41.54
2023-05-24T15:21:03.680Z,41.90
2023-05-24T15:26:05.788Z,40.48
2023-05-24T15:31:07.685Z,38.58
2023-05-24T15:36:11.017Z,41.60
2023-05-24T15:41:12.849Z,38.70
2023-05-24T15:46:14.812Z,40.03
2023-05-24T15:56:22.180Z,41.50
2023-05-24T16:01:24.020Z,41.80
2023-05-24T16:06:25.731Z,41.46
2023-05-24T16:11:27.526Z,43.17
2023-05-24T16:16:29.637Z,41.70
2023-05-24T16:21:33.118Z,42.14
2023-05-24T16:26:35.177Z,43.16
2023-05-24T16:31:37.124Z,45.08
2023-05-24T16:36:39.756Z,46.48
2023-05-24T16:41:41.588Z,46.48
2023-05-24T16:46:46.891Z,44.45
2023-05-24T16:51:49.732Z,46.23
2023-05-24T16:56:55.060Z,46.18
2023-05-24T17:01:56.958Z,45.87
2023-05-24T17:06:58.777Z,46.66
2023-05-24T17:12:00.584Z,47.25
2023-05-24T17:17:04.069Z,46.79
2023-05-24T17:22:08.731Z,48.74
2023-05-24T17:27:10.911Z,48.22
2023-05-24T17:32:12.817Z,49.99
2023-05-24T17:37:14.708Z,48.23
2023-05-24T17:42:16.506Z,47.82
2023-05-24T17:47:18.646Z,47.65
2023-05-24T17:52:20.438Z,47.40
2023-05-24T17:57:22.281Z,48.96
2023-05-24T18:02:24.412Z,50.54
2023-05-24T18:07:26.253Z,50.63
2023-05-24T18:12:28.597Z,51.58
2023-05-24T18:17:31.527Z,51.53
2023-05-24T18:22:33.519Z,51.44
2023-05-24T18:27:35.606Z,52.96
2023-05-24T18:32:41.991Z,55.28
2023-05-24T18:37:47.948Z,55.37
2023-05-24T18:42:52.922Z,54.80
2023-05-24T18:47:54.808Z,56.82
2023-05-24T18:52:56.825Z,59.13
2023-05-24T18:57:58.730Z,60.74
2023-05-24T19:03:01.095Z,62.49
2023-05-24T19:08:02.909Z,62.21
2023-05-24T19:13:06.553Z,60.90
2023-05-24T19:18:08.986Z,61.06
2023-05-24T19:23:10.827Z,64.13
2023-05-24T19:28:12.813Z,65.72
2023-05-24T19:33:14.885Z,63.49
2023-05-24T19:38:17.977Z,62.92
2023-05-24T19:43:20.008Z,63.74
2023-05-24T19:48:22.663Z,64.49
2023-05-24T19:53:24.648Z,64.68
2023-05-24T19:58:26.516Z,64.86
2023-05-24T20:03:28.322Z,65.18
2023-05-24T20:08:30.182Z,67.80
2023-05-24T20:13:31.889Z,70.25
2023-05-24T20:18:35.394Z,70.52
2023-05-24T20:23:37.172Z,70.57
2023-05-24T20:28:38.834Z,70.05
2023-05-24T20:33:40.726Z,69.57
2023-05-24T20:38:42.513Z,71.38
2023-05-24T20:43:44.303Z,72.75
2023-05-24T20:48:46.728Z,75.18
2023-05-24T20:53:51.689Z,75.76
2023-05-24T20:58:54.334Z,75.20
2023-05-24T21:03:56.698Z,76.62
2023-05-24T21:08:58.942Z,76.95
2023-05-24T21:14:00.731Z,77.68
2023-05-24T21:19:02.491Z,76.88
2023-05-24T21:24:04.389Z,78.85
2023-05-24T21:29:06.133Z,79.36
2023-05-24T21:34:07.909Z,77.88
2023-05-24T21:39:09.698Z,79.01
2023-05-24T21:44:11.411Z,83.34
2023-05-24T21:49:13.164Z,84.13
2023-05-24T21:54:15.145Z,83.96
2023-05-24T21:59:16.933Z,81.24
2023-05-24T22:04:20.676Z,80.53
2023-05-24T22:09:27.987Z,81.70
2023-05-24T22:14:29.743Z,83.61
2023-05-24T22:24:41.389Z,85.02
2023-05-24T22:29:43.886Z,86.26
2023-05-24T22:34:45.812Z,85.06
2023-05-24T22:39:47.531Z,85.58
2023-05-24T22:44:49.239Z,86.76
2023-05-24T22:49:54.132Z,86.11
2023-05-24T22:54:56.135Z,85.70
2023-05-24T22:59:57.797Z,87.61
2023-05-24T23:05:00.259Z,90.24
2023-05-24T23:10:03.300Z,91.19
2023-05-24T23:15:05.304Z,89.19
2023-05-24T23:20:10.100Z,90.79
2023-05-24T23:25:11.900Z,92.80
2023-05-24T23:30:13.631Z,94.38
2023-05-24T23:35:15.898Z,94.06
2023-05-24T23:40:17.860Z,93.20
2023-05-24T23:45:19.664Z,93.73
2023-05-24T23:50:22.654Z,90.36
2023-05-24T23:55:24.631Z,92.23
